createdAt,value
2018-02-24T00:00:22.292Z,16.93
2018-02-24T00:03:23.511Z,16.50
2018-02-24T00:06:24.760Z,18.27
2018-02-24T00:09:25.961Z,17.00
2018-02-24T00:12:27.163Z,18.37
2018-02-24T00:15:28.350Z,15.97
2018-02-24T00:18:29.621Z,20.17
2018-02-24T00:21:30.893Z,17.20
2018-02-24T00:24:32.116Z,15.47
2018-02-24T00:27:33.310Z,18.87
2018-02-24T00:30:34.525Z,19.47
2018-02-24T00:33:35.718Z,17.67
2018-02-24T00:36:37.685Z,17.43
2018-02-24T00:39:39.617Z,19.93
2018-02-24T00:42:40.834Z,20.37
2018-02-24T00:45:42.044Z,19.03
2018-02-24T00:48:43.292Z,17.60
2018-02-24T00:51:44.500Z,18.60
2018-02-24T00:54:45.717Z,19.80
2018-02-24T00:57:46.960Z,19.43
2018-02-24T01:00:48.266Z,18.90
2018-02-24T01:03:49.484Z,19.73
2018-02-24T01:06:50.689Z,18.63
2018-02-24T01:09:51.901Z,19.23
2018-02-24T01:12:53.128Z,21.97
2018-02-24T01:15:54.496Z,19.37
2018-02-24T01:18:56.597Z,18.57
2018-02-24T01:21:58.529Z,21.40
2018-02-24T01:24:59.720Z,18.17
2018-02-24T01:28:00.956Z,18.00
2018-02-24T01:31:09.084Z,17.37
2018-02-24T01:34:10.286Z,16.00
2018-02-24T01:37:12.241Z,16.93
2018-02-24T01:40:13.440Z,16.90
2018-02-24T01:43:15.389Z,16.67
2018-02-24T01:46:16.597Z,17.13
2018-02-24T01:49:17.793Z,16.80
2018-02-24T01:52:18.993Z,17.10
2018-02-24T01:55:20.968Z,15.90
2018-02-24T01:58:22.168Z,17.83
2018-02-24T02:01:23.433Z,18.10
2018-02-24T02:04:24.627Z,17.70
2018-02-24T02:07:25.857Z,16.83
2018-02-24T02:10:27.062Z,16.10
2018-02-24T02:13:28.539Z,19.00
2018-02-24T02:16:29.982Z,17.83
2018-02-24T02:19:32.096Z,17.47
2018-02-24T02:22:33.529Z,16.27
2018-02-24T02:25:34.961Z,16.47
2018-02-24T02:28:36.193Z,17.53
2018-02-24T02:31:37.391Z,16.43
2018-02-24T02:34:38.593Z,15.37
2018-02-24T02:37:39.801Z,16.43
2018-02-24T02:40:41.725Z,16.67
2018-02-24T02:43:42.948Z,18.10
2018-02-24T02:46:44.154Z,17.53
2018-02-24T02:49:45.400Z,17.27
2018-02-24T02:52:46.620Z,17.50
2018-02-24T02:55:48.580Z,17.10
2018-02-24T02:58:49.823Z,17.67
2018-02-24T03:01:51.843Z,16.60
2018-02-24T03:04:53.800Z,17.00
2018-02-24T03:07:54.999Z,16.10
2018-02-24T03:10:56.209Z,15.47
2018-02-24T03:13:57.425Z,18.03
2018-02-24T03:16:58.636Z,16.17
2018-02-24T03:19:59.852Z,16.47
2018-02-24T03:23:01.069Z,15.93
2018-02-24T03:26:02.290Z,17.67
2018-02-24T03:29:03.513Z,16.97
2018-02-24T03:32:04.740Z,16.07
2018-02-24T03:35:05.941Z,19.63
2018-02-24T03:38:07.885Z,15.87
2018-02-24T03:41:09.116Z,16.33
2018-02-24T03:44:10.380Z,16.47
2018-02-24T03:47:11.569Z,16.23
2018-02-24T03:50:12.808Z,16.60
2018-02-24T03:53:14.025Z,15.27
2018-02-24T03:56:15.247Z,17.13
2018-02-24T03:59:16.470Z,16.67
2018-02-24T04:02:18.457Z,17.60
2018-02-24T04:05:19.718Z,18.57
2018-02-24T04:08:20.924Z,17.60
2018-02-24T04:11:22.201Z,17.00
2018-02-24T04:14:23.420Z,17.20
2018-02-24T04:17:24.642Z,16.97
2018-02-24T04:20:25.836Z,17.60
2018-02-24T04:23:27.116Z,16.80
2018-02-24T04:26:28.300Z,17.83
2018-02-24T04:29:29.525Z,17.77
2018-02-24T04:32:30.732Z,17.20
2018-02-24T04:35:31.921Z,16.53
2018-02-24T04:38:33.133Z,17.17
2018-02-24T04:41:34.326Z,17.80
2018-02-24T04:44:35.544Z,16.90
2018-02-24T04:47:36.767Z,19.00
2018-02-24T04:50:37.958Z,19.10
2018-02-24T04:53:39.169Z,18.33
2018-02-24T04:56:40.396Z,18.00
2018-02-24T04:59:41.625Z,17.60
2018-02-24T05:02:43.618Z,17.00
2018-02-24T05:05:44.945Z,18.23
2018-02-24T05:08:46.168Z,16.87
2018-02-24T05:11:47.383Z,19.00
2018-02-24T05:14:48.624Z,16.87
2018-02-24T05:17:49.800Z,16.73
2018-02-24T05:20:51.020Z,17.53
2018-02-24T05:23:52.237Z,19.63
2018-02-24T05:26:54.217Z,18.67
2018-02-24T05:29:56.163Z,19.20
2018-02-24T05:32:57.394Z,18.00
2018-02-24T05:35:58.587Z,17.93
2018-02-24T05:38:59.790Z,18.63
2018-02-24T05:42:01.736Z,18.53
2018-02-24T05:45:02.976Z,18.47
2018-02-24T05:48:04.173Z,17.73
2018-02-24T05:51:05.383Z,19.97
2018-02-24T05:54:06.628Z,16.47
2018-02-24T05:57:08.576Z,20.27
2018-02-24T06:00:09.830Z,20.53
2018-02-24T06:03:11.100Z,19.03
2018-02-24T06:06:12.340Z,18.43
2018-02-24T06:09:13.528Z,17.20
2018-02-24T06:12:14.768Z,18.50
2018-02-24T06:15:15.975Z,18.43
2018-02-24T06:18:17.916Z,19.47
2018-02-24T06:21:19.135Z,18.93
2018-02-24T06:24:20.351Z,18.37
2018-02-24T06:27:21.633Z,15.70
2018-02-24T06:30:22.841Z,18.83
2018-02-24T06:33:24.124Z,19.53
2018-02-24T06:36:25.402Z,20.13
2018-02-24T06:39:26.652Z,18.60
2018-02-24T06:42:27.881Z,16.43
2018-02-24T06:45:29.120Z,19.27
2018-02-24T06:48:31.058Z,18.37
2018-02-24T06:51:33.011Z,17.17
2018-02-24T06:54:34.377Z,18.23
2018-02-24T06:57:35.599Z,17.30
2018-02-24T07:00:37.580Z,15.53
2018-02-24T07:03:39.575Z,18.33
2018-02-24T07:06:40.781Z,17.80
2018-02-24T07:09:42.020Z,16.50
2018-02-24T07:12:43.213Z,16.27
2018-02-24T07:15:44.456Z,16.00
2018-02-24T07:18:45.676Z,16.00
2018-02-24T07:21:46.924Z,16.97
2018-02-24T07:24:48.152Z,18.00
2018-02-24T07:27:49.362Z,16.93
2018-02-24T07:30:51.313Z,18.20
2018-02-24T07:33:52.541Z,17.60
2018-02-24T07:36:53.822Z,17.40
2018-02-24T07:39:55.056Z,16.70
2018-02-24T07:42:56.249Z,17.03
2018-02-24T07:45:57.462Z,17.70
2018-02-24T07:48:59.412Z,18.60
2018-02-24T07:52:00.618Z,18.00
2018-02-24T07:55:01.845Z,16.97
2018-02-24T07:58:03.090Z,16.33
2018-02-24T08:01:04.304Z,17.10
2018-02-24T08:04:05.565Z,18.10
2018-02-24T08:07:06.838Z,18.10
2018-02-24T08:10:08.047Z,17.00
2018-02-24T08:13:09.273Z,21.33
2018-02-24T08:16:10.498Z,16.53
2018-02-24T08:19:12.497Z,18.10
2018-02-24T08:22:13.712Z,16.07
2018-02-24T08:25:14.922Z,15.27
2018-02-24T08:28:16.144Z,15.97
2018-02-24T08:31:17.388Z,15.63
2018-02-24T08:34:18.609Z,20.87
2018-02-24T08:37:19.891Z,16.20
2018-02-24T08:40:21.112Z,13.63
2018-02-24T08:43:23.061Z,14.50
2018-02-24T08:46:24.293Z,14.10
2018-02-24T08:49:25.496Z,14.93
2018-02-24T08:52:26.760Z,13.77
2018-02-24T08:55:27.981Z,12.27
2018-02-24T08:58:29.199Z,13.13
2018-02-24T09:01:31.153Z,12.87
2018-02-24T09:04:32.399Z,12.10
2018-02-24T09:07:33.606Z,12.27
2018-02-24T09:10:35.566Z,11.67
2018-02-24T09:13:37.272Z,11.20
2018-02-24T09:16:38.641Z,13.17
2018-02-24T09:19:40.119Z,16.17
2018-02-24T09:22:41.490Z,17.57
2018-02-24T09:25:42.906Z,12.63
2018-02-24T09:28:45.253Z,14.33
2018-02-24T09:31:46.864Z,11.53
2018-02-24T09:34:56.134Z,11.67
2018-02-24T09:37:57.417Z,14.33
2018-02-24T09:40:58.651Z,10.80
2018-02-24T09:43:59.844Z,10.43
2018-02-24T09:47:01.053Z,10.27
2018-02-24T09:50:02.314Z,9.13
2018-02-24T09:53:03.650Z,9.30
2018-02-24T09:56:04.847Z,9.47
2018-02-24T09:59:06.073Z,8.67
2018-02-24T10:02:07.284Z,9.17
2018-02-24T10:05:08.534Z,7.40
2018-02-24T10:08:09.761Z,10.27
2018-02-24T10:11:11.005Z,10.13
2018-02-24T10:14:12.198Z,9.93
2018-02-24T10:17:13.456Z,9.20
2018-02-24T10:20:14.659Z,8.00
2018-02-24T10:23:15.908Z,7.77
2018-02-24T10:26:17.105Z,9.80
2018-02-24T10:29:19.067Z,13.03
2018-02-24T10:32:20.284Z,15.90
2018-02-24T10:35:21.505Z,8.13
2018-02-24T10:38:23.457Z,9.07
2018-02-24T10:41:24.830Z,7.97
2018-02-24T10:44:26.048Z,7.17
2018-02-24T10:47:27.264Z,7.33
2018-02-24T10:50:28.454Z,8.33
2018-02-24T10:53:29.888Z,8.43
2018-02-24T10:56:31.104Z,6.80
2018-02-24T10:59:32.305Z,7.90
2018-02-24T11:02:33.529Z,9.50
2018-02-24T11:05:34.855Z,7.73
2018-02-24T11:08:36.824Z,9.73
2018-02-24T11:11:38.077Z,8.73
2018-02-24T11:14:39.316Z,7.70
2018-02-24T11:17:40.591Z,13.50
2018-02-24T11:20:41.797Z,7.30
2018-02-24T11:23:43.780Z,6.50
2018-02-24T11:26:45.780Z,7.20
2018-02-24T11:29:47.025Z,7.50
2018-02-24T11:32:49.122Z,9.73
2018-02-24T11:35:50.347Z,9.83
2018-02-24T11:38:52.075Z,6.90
2018-02-24T11:41:53.328Z,9.97
2018-02-24T11:44:54.934Z,7.20
2018-02-24T11:47:56.815Z,9.70
2018-02-24T11:50:58.053Z,8.83
2018-02-24T11:53:59.316Z,6.53
2018-02-24T11:57:00.522Z,8.00
2018-02-24T12:00:01.761Z,5.70
2018-02-24T12:03:03.000Z,6.00
2018-02-24T12:06:04.237Z,6.37
2018-02-24T12:09:05.447Z,5.47
2018-02-24T12:12:06.710Z,5.97
2018-02-24T12:15:07.927Z,5.00
2018-02-24T12:18:09.185Z,7.60
2018-02-24T12:21:10.398Z,10.77
2018-02-24T12:24:11.645Z,6.43
2018-02-24T12:27:12.859Z,6.03
2018-02-24T12:30:14.094Z,7.90
2018-02-24T12:33:15.332Z,5.70
2018-02-24T12:36:16.584Z,7.33
2018-02-24T12:39:18.557Z,7.60
2018-02-24T12:42:20.555Z,5.80
2018-02-24T12:45:21.860Z,5.73
2018-02-24T12:48:23.093Z,10.40
2018-02-24T12:51:24.340Z,5.70
2018-02-24T12:54:26.327Z,14.90
2018-02-24T12:57:27.560Z,11.73
2018-02-24T13:00:28.797Z,6.47
2018-02-24T13:03:30.007Z,5.80
2018-02-24T13:06:31.980Z,7.03
2018-02-24T13:09:33.949Z,5.80
2018-02-24T13:12:35.184Z,6.43
2018-02-24T13:15:36.381Z,6.70
2018-02-24T13:18:38.349Z,5.07
2018-02-24T13:21:39.556Z,5.83
2018-02-24T13:24:40.789Z,7.33
2018-02-24T13:27:42.746Z,12.57
2018-02-24T13:30:43.995Z,7.47
2018-02-24T13:33:45.237Z,5.27
2018-02-24T13:36:46.502Z,5.57
2018-02-24T13:39:47.718Z,5.80
2018-02-24T13:42:49.681Z,6.83
2018-02-24T13:45:50.876Z,5.00
2018-02-24T13:48:52.106Z,5.67
2018-02-24T13:51:53.308Z,6.60
2018-02-24T13:54:54.556Z,6.00
2018-02-24T13:57:55.794Z,5.73
2018-02-24T14:00:57.009Z,5.30
2018-02-24T14:03:58.253Z,5.90
2018-02-24T14:06:59.500Z,6.20
2018-02-24T14:10:01.478Z,6.33
2018-02-24T14:13:03.520Z,4.53
2018-02-24T14:16:04.674Z,4.27
2018-02-24T14:19:05.931Z,5.67
2018-02-24T14:22:07.181Z,5.10
2018-02-24T14:25:08.420Z,5.33
2018-02-24T14:28:09.641Z,6.13
2018-02-24T14:31:10.880Z,5.30
2018-02-24T14:34:12.086Z,5.73
2018-02-24T14:37:14.055Z,6.57
2018-02-24T14:40:15.292Z,4.77
2018-02-24T14:43:16.545Z,5.13
2018-02-24T14:46:17.752Z,6.37
2018-02-24T14:49:18.977Z,6.00
2018-02-24T14:52:20.212Z,6.30
2018-02-24T14:55:21.445Z,5.97
2018-02-24T14:58:23.398Z,6.63
2018-02-24T15:01:24.636Z,6.50
2018-02-24T15:04:25.893Z,6.67
2018-02-24T15:07:27.164Z,7.03
2018-02-24T15:10:28.388Z,6.87
2018-02-24T15:13:30.336Z,6.70
2018-02-24T15:16:31.576Z,7.30
2018-02-24T15:19:32.840Z,6.30
2018-02-24T15:22:34.069Z,6.50
2018-02-24T15:25:35.324Z,7.90
2018-02-24T15:28:36.569Z,7.33
2018-02-24T15:31:38.556Z,6.90
2018-02-24T15:34:40.548Z,7.17
2018-02-24T15:37:41.777Z,6.73
2018-02-24T15:40:42.993Z,8.10
2018-02-24T15:43:44.321Z,6.20
2018-02-24T15:46:46.289Z,6.70
2018-02-24T15:49:47.549Z,6.97
2018-02-24T15:52:48.792Z,7.80
2018-02-24T15:55:50.040Z,7.00
2018-02-24T15:58:51.268Z,6.27
2018-02-24T16:01:52.477Z,8.20
2018-02-24T16:04:53.680Z,9.60
2018-02-24T16:07:55.641Z,6.87
2018-02-24T16:10:56.873Z,6.50
2018-02-24T16:13:58.161Z,5.87
2018-02-24T16:16:59.449Z,7.00
2018-02-24T16:20:01.453Z,10.37
2018-02-24T16:23:02.678Z,14.60
2018-02-24T16:26:03.895Z,7.20
2018-02-24T16:29:05.120Z,7.90
2018-02-24T16:32:07.336Z,9.60
2018-02-24T16:35:08.580Z,10.20
2018-02-24T16:38:09.936Z,5.77
2018-02-24T16:41:11.886Z,8.97
2018-02-24T16:44:14.681Z,12.43
2018-02-24T16:47:16.848Z,5.40
2018-02-24T16:50:18.316Z,7.00
2018-02-24T16:53:19.819Z,5.20
2018-02-24T16:56:21.470Z,4.87
2018-02-24T16:59:24.946Z,10.43
2018-02-24T17:02:26.168Z,6.13
2018-02-24T17:05:28.270Z,10.53
2018-02-24T17:08:30.205Z,6.77
2018-02-24T17:11:32.267Z,6.00
2018-02-24T17:14:34.133Z,5.87
2018-02-24T17:17:36.726Z,4.83
2018-02-24T17:20:38.011Z,5.70
2018-02-24T17:23:40.216Z,3.50
2018-02-24T17:26:41.886Z,3.87
2018-02-24T17:29:44.344Z,4.30
2018-02-24T17:32:46.122Z,4.00
2018-02-24T17:35:47.365Z,4.97
2018-02-24T17:38:48.718Z,4.00
2018-02-24T17:41:50.950Z,3.20
2018-02-24T17:44:52.384Z,3.63
2018-02-24T17:47:53.641Z,2.70
2018-02-24T17:50:54.876Z,2.40
2018-02-24T17:53:56.640Z,3.60
2018-02-24T17:56:58.345Z,3.07
2018-02-24T18:00:00.341Z,8.17
2018-02-24T18:03:01.753Z,4.17
2018-02-24T18:06:03.540Z,3.73
2018-02-24T18:09:05.506Z,8.10
2018-02-24T18:12:08.331Z,7.70
2018-02-24T18:15:10.109Z,4.27
2018-02-24T18:18:11.881Z,5.90
2018-02-24T18:21:13.546Z,6.87
2018-02-24T18:24:15.267Z,13.63
2018-02-24T18:27:17.270Z,5.83
2018-02-24T18:30:19.029Z,4.97
2018-02-24T18:33:20.308Z,4.13
2018-02-24T18:36:21.617Z,3.60
2018-02-24T18:39:23.575Z,7.17
2018-02-24T18:42:24.801Z,3.93
2018-02-24T18:45:26.554Z,3.40
2018-02-24T18:48:27.844Z,4.03
2018-02-24T18:51:29.079Z,4.37
2018-02-24T18:58:35.628Z,3.50
2018-02-24T19:01:38.207Z,3.67
2018-02-24T19:04:39.559Z,5.50
2018-02-24T19:07:43.276Z,3.87
2018-02-24T19:10:44.540Z,2.77
2018-02-24T19:13:47.020Z,3.03
2018-02-24T19:16:48.280Z,2.93
2018-02-24T19:19:49.996Z,3.23
2018-02-24T19:22:51.256Z,3.80
2018-02-24T19:25:52.788Z,3.43
2018-02-24T19:28:54.006Z,3.30
2018-02-24T19:31:55.292Z,4.50
2018-02-24T19:34:56.717Z,5.57
2018-02-24T19:37:57.936Z,3.23
2018-02-24T19:40:59.561Z,6.13
2018-02-24T19:44:01.595Z,5.07
2018-02-24T19:47:03.435Z,3.13
2018-02-24T19:50:05.308Z,3.73
2018-02-24T19:53:06.561Z,2.53
2018-02-24T19:56:09.424Z,2.13
2018-02-24T19:59:10.983Z,3.90
2018-02-24T20:02:13.306Z,6.83
2018-02-24T20:05:15.705Z,3.07
2018-02-24T20:08:16.937Z,2.97
2018-02-24T20:11:19.874Z,2.50
2018-02-24T20:14:22.135Z,3.27
2018-02-24T20:17:23.498Z,3.53
2018-02-24T20:20:24.765Z,5.00
2018-02-24T20:23:27.185Z,7.97
2018-02-24T20:26:29.996Z,3.97
2018-02-24T20:29:31.288Z,3.60
2018-02-24T20:32:32.993Z,3.23
2018-02-24T20:35:35.293Z,2.73
2018-02-24T20:38:36.557Z,4.17
2018-02-24T20:41:37.789Z,3.43
2018-02-24T20:44:39.381Z,3.10
2018-02-24T20:47:41.897Z,2.70
2018-02-24T20:50:43.144Z,4.33
2018-02-24T20:53:44.947Z,4.93
2018-02-24T20:56:46.207Z,7.80
2018-02-24T20:59:47.877Z,5.10
2018-02-24T21:02:49.181Z,3.63
2018-02-24T21:05:51.328Z,10.43
2018-02-24T21:08:53.260Z,2.27
2018-02-24T21:11:55.788Z,19.97
2018-02-24T21:14:57.486Z,9.50
2018-02-24T21:17:58.731Z,7.00
2018-02-24T21:21:00.200Z,11.53
2018-02-24T21:24:01.447Z,4.20
2018-02-24T21:27:02.667Z,6.67
2018-02-24T21:30:04.738Z,7.63
2018-02-24T21:33:07.274Z,18.77
2018-02-24T21:36:08.665Z,3.80
2018-02-24T21:39:10.394Z,5.20
2018-02-24T21:42:11.907Z,9.47
2018-02-24T21:45:13.897Z,8.33
2018-02-24T21:48:15.375Z,14.83
2018-02-24T21:51:16.602Z,7.70
2018-02-24T21:54:17.836Z,4.13
2018-02-24T21:57:19.073Z,3.10
2018-02-24T22:00:20.301Z,2.93
2018-02-24T22:03:21.545Z,3.60
2018-02-24T22:06:23.494Z,5.10
2018-02-24T22:09:24.734Z,3.60
2018-02-24T22:12:25.969Z,3.10
2018-02-24T22:15:27.183Z,6.40
2018-02-24T22:18:28.428Z,4.60
2018-02-24T22:21:30.480Z,4.37
2018-02-24T22:24:31.752Z,4.07
2018-02-24T22:27:32.992Z,3.57
2018-02-24T22:30:34.294Z,4.40
2018-02-24T22:33:35.599Z,3.53
2018-02-24T22:36:36.872Z,4.50
2018-02-24T22:39:38.827Z,2.77
2018-02-24T22:42:40.184Z,3.30
2018-02-24T22:45:41.498Z,3.70
2018-02-24T22:48:49.190Z,2.90
2018-02-24T22:51:50.683Z,3.57
2018-02-24T22:54:53.095Z,3.40
2018-02-24T22:57:54.489Z,3.57
2018-02-24T23:00:56.521Z,4.27
2018-02-24T23:03:57.892Z,4.10
2018-02-24T23:06:59.154Z,3.00
2018-02-24T23:10:00.481Z,3.40
2018-02-24T23:13:02.479Z,3.53
2018-02-24T23:16:03.835Z,4.30
2018-02-24T23:19:06.008Z,4.90
2018-02-24T23:22:07.979Z,5.17
2018-02-24T23:25:09.298Z,6.80
2018-02-24T23:28:10.663Z,5.87
2018-02-24T23:31:12.051Z,6.60
2018-02-24T23:34:14.024Z,9.77
2018-02-24T23:37:15.289Z,10.60
2018-02-24T23:40:16.687Z,13.80
2018-02-24T23:43:18.767Z,17.27
2018-02-24T23:46:19.975Z,11.63
2018-02-24T23:49:21.185Z,9.83
2018-02-24T23:52:22.377Z,11.17
2018-02-24T23:55:24.405Z,9.40
2018-02-24T23:58:25.601Z,13.37
